createdAt,value
2023-03-27T00:00:41.641Z,96418.09
2023-03-27T00:02:50.655Z,96428.09
2023-03-27T00:04:59.055Z,96417.22
2023-03-27T00:07:06.892Z,96422.41
2023-03-27T00:09:17.668Z,96436.03
2023-03-27T00:11:26.346Z,96432.22
2023-03-27T00:13:34.653Z,96437.19
2023-03-27T00:15:43.693Z,96434.97
2023-03-27T00:17:54.709Z,96432.22
2023-03-27T00:20:05.134Z,96433.06
2023-03-27T00:22:13.016Z,96427.78
2023-03-27T00:24:23.867Z,96422.94
2023-03-27T00:26:32.732Z,96430.75
2023-03-27T00:28:40.938Z,96439.63
2023-03-27T00:30:51.566Z,96436.03
2023-03-27T00:32:59.689Z,96430.09
2023-03-27T00:35:09.550Z,96435.91
2023-03-27T00:37:19.505Z,96453.19
2023-03-27T00:39:31.425Z,96441.72
2023-03-27T00:41:39.277Z,96460.28
2023-03-27T00:43:47.548Z,96462.38
2023-03-27T00:46:01.649Z,96455.53
2023-03-27T00:48:12.046Z,96461.53
2023-03-27T00:50:24.010Z,96460.59
2023-03-27T00:52:33.780Z,96460.47
2023-03-27T00:54:44.554Z,96463.19
2023-03-27T00:56:53.410Z,96456.00
2023-03-27T00:59:05.607Z,96456.84
2023-03-27T01:01:17.707Z,96448.28
2023-03-27T01:03:28.079Z,96461.59
2023-03-27T01:05:37.590Z,96465.38
2023-03-27T01:08:00.502Z,96469.34
2023-03-27T01:10:14.255Z,96480.09
2023-03-27T01:12:33.434Z,96501.81
2023-03-27T01:14:53.595Z,96511.13
2023-03-27T01:17:27.735Z,96523.19
2023-03-27T01:20:05.955Z,96526.69
2023-03-27T01:22:50.393Z,96532.91
2023-03-27T01:25:16.168Z,96540.53
2023-03-27T01:27:38.112Z,96528.13
2023-03-27T01:30:07.056Z,96542.22
2023-03-27T01:32:49.772Z,96545.34
2023-03-27T01:35:20.202Z,96549.66
2023-03-27T01:37:51.919Z,96559.25
2023-03-27T01:40:08.162Z,96554.19
2023-03-27T01:42:23.369Z,96568.38
2023-03-27T01:44:44.482Z,96586.09
2023-03-27T01:46:57.814Z,96590.13
2023-03-27T01:49:12.809Z,96596.78
2023-03-27T01:51:26.426Z,96625.56
2023-03-27T01:53:40.980Z,96623.72
2023-03-27T01:55:58.389Z,96625.47
2023-03-27T01:58:14.188Z,96627.94
2023-03-27T02:00:27.714Z,96631.88
2023-03-27T02:03:00.138Z,96644.19
2023-03-27T02:05:14.388Z,96640.91
2023-03-27T02:07:31.630Z,96652.53
2023-03-27T02:09:43.549Z,96649.31
2023-03-27T02:11:59.993Z,96651.78
2023-03-27T02:14:12.373Z,96647.97
2023-03-27T02:16:25.139Z,96649.00
2023-03-27T02:18:37.687Z,96657.41
2023-03-27T02:20:45.633Z,96656.63
2023-03-27T02:22:54.107Z,96668.19
2023-03-27T02:25:02.115Z,96659.47
2023-03-27T02:27:19.961Z,96672.78
2023-03-27T02:29:46.071Z,96691.03
2023-03-27T02:32:10.980Z,96673.88
2023-03-27T02:34:40.844Z,96679.47
2023-03-27T02:36:58.109Z,96686.63
2023-03-27T02:39:29.938Z,96678.22
2023-03-27T02:41:43.214Z,96677.63
2023-03-27T02:44:31.444Z,96691.19
2023-03-27T02:46:52.002Z,96687.72
2023-03-27T02:49:04.694Z,96701.09
2023-03-27T02:51:17.189Z,96702.28
2023-03-27T02:53:28.596Z,96706.56
2023-03-27T02:55:41.513Z,96712.66
2023-03-27T02:57:59.670Z,96722.31
2023-03-27T03:00:25.714Z,96730.59
2023-03-27T03:03:05.779Z,96750.56
2023-03-27T03:05:20.835Z,96753.22
2023-03-27T03:07:30.343Z,96760.06
2023-03-27T03:09:40.588Z,96764.72
2023-03-27T03:11:52.691Z,96774.13
2023-03-27T03:14:02.125Z,96779.84
2023-03-27T03:16:14.130Z,96787.41
2023-03-27T03:18:24.385Z,96800.03
2023-03-27T03:20:35.865Z,96805.69
2023-03-27T03:22:46.275Z,96803.91
2023-03-27T03:24:58.393Z,96805.84
2023-03-27T03:27:08.986Z,96819.69
2023-03-27T03:29:40.115Z,96820.22
2023-03-27T03:32:03.796Z,96830.09
2023-03-27T03:34:12.833Z,96827.31
2023-03-27T03:36:20.968Z,96833.03
2023-03-27T03:38:38.149Z,96843.78
2023-03-27T03:40:52.870Z,96845.25
2023-03-27T03:43:01.617Z,96842.75
2023-03-27T03:45:12.742Z,96843.06
2023-03-27T03:47:23.545Z,96857.91
2023-03-27T03:49:33.693Z,96867.47
2023-03-27T03:51:41.779Z,96868.47
2023-03-27T03:53:49.916Z,96882.44
2023-03-27T03:55:58.085Z,96885.06
2023-03-27T03:58:06.805Z,96890.25
2023-03-27T04:00:17.124Z,96903.75
2023-03-27T04:02:35.238Z,96912.59
2023-03-27T04:04:51.105Z,96926.59
2023-03-27T04:06:59.286Z,96928.78
2023-03-27T04:09:13.167Z,96934.81
2023-03-27T04:11:46.189Z,96944.09
2023-03-27T04:13:57.129Z,96952.91
2023-03-27T04:16:17.995Z,96968.38
2023-03-27T04:18:35.360Z,96986.97
2023-03-27T04:20:54.672Z,96993.38
2023-03-27T04:23:08.396Z,97009.84
2023-03-27T04:25:24.808Z,97011.81
2023-03-27T04:27:33.779Z,97023.72
2023-03-27T04:29:54.616Z,97025.31
2023-03-27T04:32:31.696Z,97043.28
2023-03-27T04:35:05.575Z,97043.47
2023-03-27T04:37:27.998Z,97047.88
2023-03-27T04:40:00.602Z,97052.72
2023-03-27T04:42:08.894Z,97061.00
2023-03-27T04:44:17.782Z,97061.16
2023-03-27T04:46:26.732Z,97068.69
2023-03-27T04:48:42.875Z,97081.69
2023-03-27T04:51:03.640Z,97089.38
2023-03-27T04:53:15.717Z,97102.63
2023-03-27T04:55:28.809Z,97103.81
2023-03-27T04:57:37.972Z,97120.50
2023-03-27T04:59:45.925Z,97122.47
2023-03-27T05:02:13.156Z,97143.34
2023-03-27T05:04:30.758Z,97142.13
2023-03-27T05:07:07.181Z,97153.25
2023-03-27T05:09:15.818Z,97158.59
2023-03-27T05:11:24.444Z,97158.94
2023-03-27T05:13:33.104Z,97185.59
2023-03-27T05:15:41.291Z,97191.88
2023-03-27T05:17:56.220Z,97193.00
2023-03-27T05:20:08.450Z,97208.63
2023-03-27T05:22:19.505Z,97214.38
2023-03-27T05:24:33.594Z,97226.66
2023-03-27T05:26:41.865Z,97228.00
2023-03-27T05:28:51.490Z,97239.41
2023-03-27T05:31:00.977Z,97247.63
2023-03-27T05:33:14.238Z,97251.91
2023-03-27T05:35:25.164Z,97267.72
2023-03-27T05:37:37.657Z,97262.22
2023-03-27T05:40:13.977Z,97255.41
2023-03-27T05:42:23.150Z,97274.00
2023-03-27T05:44:31.167Z,97274.50
2023-03-27T05:46:40.231Z,97286.19
2023-03-27T05:48:55.198Z,97285.88
2023-03-27T05:51:04.608Z,97296.19
2023-03-27T05:53:16.002Z,97295.16
2023-03-27T05:55:47.481Z,97306.84
2023-03-27T05:57:55.700Z,97308.66
2023-03-27T06:00:08.316Z,97322.41
2023-03-27T06:02:23.959Z,97327.00
2023-03-27T06:04:37.185Z,97334.94
2023-03-27T06:06:51.834Z,97340.06
2023-03-27T06:09:02.640Z,97340.47
2023-03-27T06:11:13.240Z,97350.06
2023-03-27T06:13:25.752Z,97360.53
2023-03-27T06:15:43.706Z,97363.94
2023-03-27T06:18:27.359Z,97370.66
2023-03-27T06:20:36.233Z,97379.56
2023-03-27T06:22:47.569Z,97389.16
2023-03-27T06:24:59.444Z,97391.97
2023-03-27T06:27:09.159Z,97394.03
2023-03-27T06:29:18.883Z,97405.97
2023-03-27T06:31:29.957Z,97411.94
2023-03-27T06:33:49.039Z,97412.69
2023-03-27T06:36:15.703Z,97430.66
2023-03-27T06:38:25.714Z,97436.34
2023-03-27T06:40:37.496Z,97439.00
2023-03-27T06:42:52.082Z,97440.59
2023-03-27T06:45:15.781Z,97449.75
2023-03-27T06:47:54.828Z,97456.50
2023-03-27T06:50:17.271Z,97469.38
2023-03-27T06:52:25.696Z,97463.50
2023-03-27T06:54:38.553Z,97470.50
2023-03-27T06:56:49.517Z,97470.69
2023-03-27T06:59:01.615Z,97478.53
2023-03-27T07:01:09.889Z,97480.00
2023-03-27T07:03:53.434Z,97492.81
2023-03-27T07:06:25.467Z,97489.75
2023-03-27T07:08:38.814Z,97495.59
2023-03-27T07:10:56.272Z,97500.31
2023-03-27T07:13:11.613Z,97510.50
2023-03-27T07:15:21.330Z,97516.66
2023-03-27T07:17:42.110Z,97504.69
2023-03-27T07:19:58.142Z,97519.84
2023-03-27T07:22:08.222Z,97519.44
2023-03-27T07:24:17.948Z,97526.22
2023-03-27T07:26:25.922Z,97538.25
2023-03-27T07:28:45.134Z,97535.94
2023-03-27T07:30:53.619Z,97544.91
2023-03-27T07:33:02.641Z,97550.50
2023-03-27T07:35:15.342Z,97554.78
2023-03-27T07:37:23.856Z,97557.84
2023-03-27T07:39:52.427Z,97565.75
2023-03-27T07:42:02.789Z,97572.63
2023-03-27T07:44:29.569Z,97570.59
2023-03-27T07:46:42.923Z,97573.75
2023-03-27T07:48:51.119Z,97590.69
2023-03-27T07:51:13.522Z,97582.13
2023-03-27T07:53:33.788Z,97585.44
2023-03-27T07:55:50.589Z,97601.88
2023-03-27T07:58:02.896Z,97605.34
2023-03-27T08:00:19.773Z,97608.47
2023-03-27T08:02:42.589Z,97612.34
2023-03-27T08:04:52.284Z,97612.06
2023-03-27T08:07:01.168Z,97622.22
2023-03-27T08:09:10.830Z,97626.69
2023-03-27T08:11:29.667Z,97632.44
2023-03-27T08:13:40.047Z,97636.75
2023-03-27T08:15:51.743Z,97644.94
2023-03-27T08:18:07.054Z,97640.91
2023-03-27T08:20:18.308Z,97649.13
2023-03-27T08:22:29.406Z,97661.28
2023-03-27T08:24:55.852Z,97652.56
2023-03-27T08:27:06.447Z,97665.56
2023-03-27T08:29:19.512Z,97659.59
2023-03-27T08:31:33.471Z,97671.25
2023-03-27T08:33:44.270Z,97674.34
2023-03-27T08:35:58.827Z,97683.63
2023-03-27T08:38:13.927Z,97683.19
2023-03-27T08:40:54.347Z,97676.44
2023-03-27T08:43:21.502Z,97683.47
2023-03-27T08:45:35.568Z,97690.25
2023-03-27T08:47:51.554Z,97682.53
2023-03-27T08:50:09.896Z,97682.44
2023-03-27T08:52:32.162Z,97697.53
2023-03-27T08:54:42.812Z,97695.38
2023-03-27T08:56:53.588Z,97696.53
2023-03-27T08:59:01.895Z,97710.09
2023-03-27T09:01:20.272Z,97712.25
2023-03-27T09:03:36.156Z,97717.44
2023-03-27T09:05:54.814Z,97717.19
2023-03-27T09:08:10.837Z,97722.56
2023-03-27T09:10:27.452Z,97730.13
2023-03-27T09:12:55.462Z,97742.59
2023-03-27T09:15:09.761Z,97721.66
2023-03-27T09:17:26.389Z,97736.69
2023-03-27T09:19:52.158Z,97741.81
2023-03-27T09:22:11.018Z,97761.63
2023-03-27T09:24:35.184Z,97778.47
2023-03-27T09:27:19.495Z,97767.78
2023-03-27T09:30:22.122Z,97772.66
2023-03-27T09:32:42.088Z,97777.53
2023-03-27T09:34:55.609Z,97782.00
2023-03-27T09:37:05.665Z,97786.97
2023-03-27T09:39:22.026Z,97802.59
2023-03-27T09:41:40.715Z,97803.72
2023-03-27T09:43:57.808Z,97806.44
2023-03-27T09:46:07.828Z,97832.81
2023-03-27T09:48:22.789Z,97832.19
2023-03-27T09:50:39.208Z,97832.81
2023-03-27T09:52:54.733Z,97837.75
2023-03-27T09:55:30.917Z,97848.34
2023-03-27T09:57:41.154Z,97844.69
2023-03-27T10:00:00.282Z,97850.81
2023-03-27T10:02:21.798Z,97878.09
2023-03-27T10:04:32.194Z,97858.19
2023-03-27T10:06:48.232Z,97863.34
2023-03-27T10:09:16.019Z,97867.34
2023-03-27T10:11:26.522Z,97891.91
2023-03-27T10:13:42.532Z,97905.78
2023-03-27T10:15:50.974Z,97894.31
2023-03-27T10:18:23.136Z,97885.53
2023-03-27T10:20:33.879Z,97880.16
2023-03-27T10:22:47.301Z,97872.00
2023-03-27T10:24:56.591Z,97861.84
2023-03-27T10:27:29.081Z,97879.72
2023-03-27T10:30:31.846Z,97884.44
2023-03-27T10:33:02.613Z,97907.56
2023-03-27T10:35:36.582Z,97902.00
2023-03-27T10:37:57.423Z,97909.75
2023-03-27T10:40:30.519Z,97913.50
2023-03-27T10:42:44.195Z,97917.03
2023-03-27T10:44:57.791Z,97920.56
2023-03-27T10:47:18.738Z,97914.97
2023-03-27T10:49:38.032Z,97920.16
2023-03-27T10:51:54.136Z,97909.75
2023-03-27T10:54:20.342Z,97918.47
2023-03-27T10:56:42.898Z,97931.47
2023-03-27T10:58:57.121Z,97934.19
2023-03-27T11:01:17.137Z,97926.25
2023-03-27T11:03:37.028Z,97916.63
2023-03-27T11:05:53.972Z,97917.28
2023-03-27T11:08:19.603Z,97912.00
2023-03-27T11:10:36.295Z,97914.34
2023-03-27T11:12:53.149Z,97917.06
2023-03-27T11:15:07.639Z,97902.09
2023-03-27T11:17:20.727Z,97907.63
2023-03-27T11:19:46.820Z,97917.34
2023-03-27T11:22:33.534Z,97907.34
2023-03-27T11:24:48.418Z,97914.78
2023-03-27T11:27:06.562Z,97911.03
2023-03-27T11:29:21.319Z,97917.38
2023-03-27T11:31:43.530Z,97926.91
2023-03-27T11:33:55.397Z,97920.00
2023-03-27T11:36:14.608Z,97919.28
2023-03-27T11:38:34.598Z,97927.91
2023-03-27T11:40:47.848Z,97919.81
2023-03-27T11:42:59.682Z,97933.19
2023-03-27T11:45:09.560Z,97950.22
2023-03-27T11:47:44.207Z,97949.53
2023-03-27T11:50:22.378Z,97950.69
2023-03-27T11:52:42.289Z,97944.34
2023-03-27T11:55:06.866Z,97953.94
2023-03-27T11:57:26.128Z,97947.00
2023-03-27T12:00:09.660Z,97951.16
2023-03-27T12:02:43.105Z,97948.47
2023-03-27T12:05:03.037Z,97943.28
2023-03-27T12:07:47.432Z,97944.88
2023-03-27T12:10:28.489Z,97939.53
2023-03-27T12:13:21.539Z,97949.16
2023-03-27T12:15:50.729Z,97944.66
2023-03-27T12:18:12.837Z,97944.84
2023-03-27T12:20:53.034Z,97933.88
2023-03-27T12:23:28.365Z,97952.38
2023-03-27T12:26:19.139Z,97953.69
2023-03-27T12:29:23.549Z,97954.13
2023-03-27T12:32:05.022Z,97956.72
2023-03-27T12:34:33.266Z,97959.97
2023-03-27T12:36:44.855Z,97953.75
2023-03-27T12:38:56.000Z,97963.03
2023-03-27T12:41:16.385Z,97971.28
2023-03-27T12:43:41.422Z,97967.97
2023-03-27T12:46:14.755Z,97959.00
2023-03-27T12:48:26.156Z,97954.03
2023-03-27T12:50:48.306Z,97947.59
2023-03-27T12:52:56.942Z,97944.53
2023-03-27T12:55:38.251Z,97944.41
2023-03-27T12:58:14.228Z,97963.38
2023-03-27T13:00:43.953Z,97949.16
2023-03-27T13:03:32.921Z,97955.22
2023-03-27T13:06:12.874Z,97949.50
2023-03-27T13:08:37.795Z,97943.00
2023-03-27T13:11:01.546Z,97941.31
2023-03-27T13:13:38.255Z,97938.13
2023-03-27T13:16:15.188Z,97940.84
2023-03-27T13:18:42.400Z,97934.56
2023-03-27T13:21:07.817Z,97946.44
2023-03-27T13:23:30.400Z,97952.72
2023-03-27T13:25:56.171Z,97962.84
2023-03-27T13:28:31.595Z,97963.38
2023-03-27T13:31:01.298Z,97963.50
2023-03-27T13:33:26.393Z,97978.03
2023-03-27T13:35:45.693Z,97972.03
2023-03-27T13:38:02.952Z,97974.81
2023-03-27T13:40:36.871Z,97976.50
2023-03-27T13:42:59.689Z,97955.88
2023-03-27T13:45:19.897Z,97942.44
2023-03-27T13:48:20.895Z,97929.81
2023-03-27T13:50:54.446Z,97916.91
2023-03-27T13:53:24.336Z,97930.00
2023-03-27T13:55:59.134Z,97948.38
2023-03-27T13:58:46.734Z,97946.41
2023-03-27T14:01:15.225Z,97953.25
2023-03-27T14:03:57.905Z,97958.06
2023-03-27T14:06:56.516Z,97962.94
2023-03-27T14:09:14.311Z,97960.78
2023-03-27T14:12:06.264Z,97954.56
2023-03-27T14:15:02.144Z,97962.31
2023-03-27T14:17:39.926Z,97965.91
2023-03-27T14:20:14.710Z,97968.00
2023-03-27T14:22:28.153Z,97974.13
2023-03-27T14:24:44.575Z,97973.03
2023-03-27T14:27:08.480Z,97993.34
2023-03-27T14:29:21.468Z,97980.16
2023-03-27T14:31:36.072Z,97981.59
2023-03-27T14:34:25.057Z,97992.00
2023-03-27T14:36:49.977Z,97990.88
2023-03-27T14:39:19.230Z,97989.66
2023-03-27T14:41:34.631Z,97978.44
2023-03-27T14:43:48.201Z,97991.44
2023-03-27T14:46:00.765Z,97989.78
2023-03-27T14:48:12.976Z,97978.66
2023-03-27T14:50:28.569Z,97982.69
2023-03-27T14:52:39.320Z,97985.22
2023-03-27T14:55:09.420Z,97987.47
2023-03-27T14:57:26.141Z,97995.94
2023-03-27T14:59:41.023Z,97999.09
2023-03-27T15:01:53.938Z,97999.88
2023-03-27T15:04:04.739Z,98003.38
2023-03-27T15:06:30.408Z,97998.81
2023-03-27T15:08:41.122Z,97987.81
2023-03-27T15:11:08.346Z,97989.59
2023-03-27T15:13:37.554Z,97995.66
2023-03-27T15:15:54.093Z,98008.69
2023-03-27T15:18:09.093Z,98004.19
2023-03-27T15:20:18.637Z,98006.53
2023-03-27T15:22:34.025Z,97995.00
2023-03-27T15:24:46.905Z,98005.44
2023-03-27T15:26:58.466Z,98006.97
2023-03-27T15:29:18.235Z,98003.50
2023-03-27T15:31:26.408Z,98009.38
2023-03-27T15:33:41.317Z,98000.03
2023-03-27T15:35:54.653Z,98000.38
2023-03-27T15:38:03.351Z,98012.69
2023-03-27T15:40:38.179Z,98005.22
2023-03-27T15:42:50.144Z,98002.25
2023-03-27T15:45:01.473Z,97994.78
2023-03-27T15:47:26.960Z,97994.13
2023-03-27T15:49:37.361Z,97993.19
2023-03-27T15:51:46.589Z,97999.00
2023-03-27T15:53:56.065Z,97999.75
2023-03-27T15:56:06.868Z,97994.63
2023-03-27T15:58:24.060Z,97990.75
2023-03-27T16:00:35.954Z,98011.56
2023-03-27T16:02:44.467Z,98018.50
2023-03-27T16:04:55.959Z,98010.09
2023-03-27T16:07:12.204Z,97999.47
2023-03-27T16:09:29.659Z,97994.31
2023-03-27T16:11:43.237Z,97994.56
2023-03-27T16:13:59.122Z,97998.81
2023-03-27T16:16:24.374Z,98005.53
2023-03-27T16:18:37.022Z,98002.38
2023-03-27T16:20:46.671Z,98001.97
2023-03-27T16:22:58.140Z,98010.94
2023-03-27T16:25:10.394Z,98013.91
2023-03-27T16:27:19.032Z,98015.53
2023-03-27T16:29:26.872Z,98013.66
2023-03-27T16:31:37.962Z,98024.63
2023-03-27T16:33:46.969Z,98026.31
2023-03-27T16:35:55.071Z,98024.47
2023-03-27T16:38:03.115Z,98025.69
2023-03-27T16:40:12.484Z,98028.69
2023-03-27T16:42:25.837Z,98034.69
2023-03-27T16:44:34.487Z,98024.72
2023-03-27T16:46:46.608Z,98026.28
2023-03-27T16:48:55.347Z,98030.16
2023-03-27T16:51:03.344Z,98031.75
2023-03-27T16:53:11.504Z,98035.72
2023-03-27T16:55:20.001Z,98023.09
2023-03-27T16:57:28.457Z,98027.69
2023-03-27T16:59:36.433Z,98033.16
2023-03-27T17:01:47.925Z,98032.44
2023-03-27T17:03:57.955Z,98032.19
2023-03-27T17:06:08.207Z,98034.25
2023-03-27T17:08:17.268Z,98042.91
2023-03-27T17:10:25.386Z,98044.63
2023-03-27T17:12:33.751Z,98053.84
2023-03-27T17:14:41.752Z,98055.94
2023-03-27T17:16:52.584Z,98051.97
2023-03-27T17:19:00.935Z,98062.19
2023-03-27T17:21:09.481Z,98062.19
2023-03-27T17:23:17.692Z,98058.41
2023-03-27T17:25:25.648Z,98062.75
2023-03-27T17:27:33.659Z,98051.91
2023-03-27T17:29:42.286Z,98063.75
2023-03-27T17:31:53.976Z,98065.53
2023-03-27T17:34:03.133Z,98057.50
2023-03-27T17:36:12.788Z,98059.97
2023-03-27T17:38:23.143Z,98062.41
2023-03-27T17:40:31.190Z,98052.47
2023-03-27T17:42:39.311Z,98055.44
2023-03-27T17:44:47.476Z,98063.81
2023-03-27T17:46:58.745Z,98067.63
2023-03-27T17:49:08.395Z,98078.13
2023-03-27T17:51:16.660Z,98081.16
2023-03-27T17:53:24.843Z,98082.41
2023-03-27T17:55:33.117Z,98086.06
2023-03-27T17:57:43.112Z,98085.03
2023-03-27T17:59:51.198Z,98095.41
2023-03-27T18:02:02.115Z,98089.69
2023-03-27T18:04:10.160Z,98092.38
2023-03-27T18:06:19.494Z,98089.75
2023-03-27T18:08:27.411Z,98093.22
2023-03-27T18:10:35.773Z,98098.88
2023-03-27T18:12:43.951Z,98092.09
2023-03-27T18:14:51.830Z,98101.50
2023-03-27T18:17:02.494Z,98101.41
2023-03-27T18:19:12.241Z,98103.72
2023-03-27T18:21:21.163Z,98115.59
2023-03-27T18:23:29.600Z,98117.28
2023-03-27T18:25:42.141Z,98111.97
2023-03-27T18:27:50.746Z,98127.56
2023-03-27T18:29:58.683Z,98118.56
2023-03-27T18:32:09.659Z,98124.50
2023-03-27T18:34:17.856Z,98123.69
2023-03-27T18:36:25.905Z,98128.97
2023-03-27T18:38:33.870Z,98129.16
2023-03-27T18:40:42.076Z,98127.97
2023-03-27T18:42:50.823Z,98129.63
2023-03-27T18:44:58.933Z,98137.56
2023-03-27T18:47:09.572Z,98139.13
2023-03-27T18:49:24.682Z,98130.03
2023-03-27T18:51:34.466Z,98138.97
2023-03-27T18:53:42.542Z,98142.75
2023-03-27T18:55:51.820Z,98142.53
2023-03-27T18:57:59.686Z,98145.66
2023-03-27T19:00:15.367Z,98144.41
2023-03-27T19:02:25.923Z,98157.47
2023-03-27T19:04:34.015Z,98154.78
2023-03-27T19:06:41.959Z,98146.41
2023-03-27T19:08:50.441Z,98145.03
2023-03-27T19:10:58.970Z,98140.69
2023-03-27T19:13:36.485Z,98143.19
2023-03-27T19:15:57.321Z,98142.09
2023-03-27T19:18:30.358Z,98155.34
2023-03-27T19:21:00.020Z,98160.03
2023-03-27T19:23:27.363Z,98162.09
2023-03-27T19:25:36.295Z,98169.75
2023-03-27T19:27:44.168Z,98174.31
2023-03-27T19:29:52.261Z,98178.19
2023-03-27T19:32:00.676Z,98188.09
2023-03-27T19:34:11.330Z,98192.13
2023-03-27T19:36:19.867Z,98205.50
2023-03-27T19:38:28.353Z,98196.69
2023-03-27T19:40:36.438Z,98187.22
2023-03-27T19:42:44.985Z,98183.16
2023-03-27T19:44:54.392Z,98188.06
2023-03-27T19:47:03.909Z,98190.81
2023-03-27T19:49:16.285Z,98183.78
2023-03-27T19:51:50.138Z,98183.50
2023-03-27T19:53:58.347Z,98185.44
2023-03-27T19:56:08.741Z,98176.03
2023-03-27T19:58:17.010Z,98188.91
2023-03-27T20:00:28.989Z,98177.00
2023-03-27T20:02:38.260Z,98179.09
2023-03-27T20:04:48.839Z,98180.19
2023-03-27T20:06:59.105Z,98185.66
2023-03-27T20:09:07.637Z,98200.84
2023-03-27T20:11:17.380Z,98199.25
2023-03-27T20:13:25.676Z,98200.13
2023-03-27T20:15:33.782Z,98192.13
2023-03-27T20:17:42.089Z,98191.00
2023-03-27T20:19:52.957Z,98178.56
2023-03-27T20:22:01.081Z,98185.66
2023-03-27T20:24:11.057Z,98190.13
2023-03-27T20:26:22.671Z,98198.06
2023-03-27T20:28:37.619Z,98204.28
2023-03-27T20:30:46.016Z,98204.22
2023-03-27T20:32:55.628Z,98198.25
2023-03-27T20:35:16.604Z,98206.38
2023-03-27T20:37:31.749Z,98202.31
2023-03-27T20:39:53.974Z,98200.56
2023-03-27T20:42:07.912Z,98201.69
2023-03-27T20:44:17.850Z,98206.34
2023-03-27T20:46:25.916Z,98209.66
2023-03-27T20:48:40.577Z,98218.38
2023-03-27T20:50:55.706Z,98217.56
2023-03-27T20:53:04.901Z,98220.31
2023-03-27T20:55:22.851Z,98212.78
2023-03-27T20:57:40.807Z,98226.56
2023-03-27T20:59:48.812Z,98232.41
2023-03-27T21:01:58.197Z,98242.00
2023-03-27T21:04:09.167Z,98246.34
2023-03-27T21:06:22.372Z,98240.56
2023-03-27T21:08:31.723Z,98244.03
2023-03-27T21:10:39.835Z,98241.53
2023-03-27T21:12:47.798Z,98244.78
2023-03-27T21:14:55.796Z,98248.16
2023-03-27T21:17:06.157Z,98251.69
2023-03-27T21:19:14.602Z,98246.81
2023-03-27T21:21:26.961Z,98254.47
2023-03-27T21:23:35.883Z,98249.09
2023-03-27T21:25:43.779Z,98254.63
2023-03-27T21:27:53.327Z,98257.31
2023-03-27T21:30:01.734Z,98259.47
2023-03-27T21:32:10.539Z,98255.22
2023-03-27T21:34:18.708Z,98267.22
2023-03-27T21:36:29.787Z,98263.97
2023-03-27T21:38:38.443Z,98257.63
2023-03-27T21:40:46.561Z,98253.41
2023-03-27T21:42:54.564Z,98263.09
2023-03-27T21:45:02.860Z,98261.38
2023-03-27T21:47:11.240Z,98262.28
2023-03-27T21:49:19.134Z,98269.69
2023-03-27T21:51:30.528Z,98267.09
2023-03-27T21:53:38.703Z,98267.06
2023-03-27T21:55:49.498Z,98279.28
2023-03-27T21:57:57.319Z,98272.69
2023-03-27T22:00:05.398Z,98275.94
2023-03-27T22:02:22.797Z,98273.53
2023-03-27T22:04:31.109Z,98276.31
2023-03-27T22:06:44.730Z,98277.84
2023-03-27T22:08:52.519Z,98286.88
2023-03-27T22:11:03.762Z,98285.34
2023-03-27T22:13:11.960Z,98291.59
2023-03-27T22:15:20.075Z,98281.88
2023-03-27T22:17:27.924Z,98292.34
2023-03-27T22:19:36.060Z,98286.25
2023-03-27T22:21:47.144Z,98291.59
2023-03-27T22:23:57.049Z,98296.25
2023-03-27T22:26:04.956Z,98295.38
2023-03-27T22:28:12.914Z,98298.13
2023-03-27T22:30:21.365Z,98299.09
2023-03-27T22:32:29.591Z,98305.28
2023-03-27T22:34:37.439Z,98311.50
2023-03-27T22:36:49.920Z,98312.56
2023-03-27T22:39:00.247Z,98312.69
2023-03-27T22:41:10.566Z,98316.38
2023-03-27T22:43:22.779Z,98324.28
2023-03-27T22:45:40.014Z,98329.66
2023-03-27T22:47:47.935Z,98330.56
2023-03-27T22:49:56.640Z,98328.91
2023-03-27T22:52:08.274Z,98330.56
2023-03-27T22:54:16.124Z,98330.66
2023-03-27T22:56:24.121Z,98327.94
2023-03-27T22:58:33.574Z,98332.31
2023-03-27T23:00:41.583Z,98334.00
2023-03-27T23:02:49.916Z,98329.69
2023-03-27T23:04:59.227Z,98337.66
2023-03-27T23:07:10.182Z,98335.66
2023-03-27T23:09:18.314Z,98332.81
2023-03-27T23:11:26.646Z,98336.25
2023-03-27T23:13:53.570Z,98340.00
2023-03-27T23:16:18.958Z,98335.03
2023-03-27T23:18:32.816Z,98333.06
2023-03-27T23:20:49.371Z,98339.88
2023-03-27T23:23:00.360Z,98341.59
2023-03-27T23:25:10.973Z,98348.78
2023-03-27T23:27:19.173Z,98351.50
2023-03-27T23:29:27.527Z,98350.41
2023-03-27T23:31:35.884Z,98353.25
2023-03-27T23:33:46.229Z,98353.25
2023-03-27T23:35:54.490Z,98354.13
2023-03-27T23:38:05.320Z,98362.06
2023-03-27T23:40:13.767Z,98357.09
2023-03-27T23:42:22.420Z,98361.47
2023-03-27T23:44:30.363Z,98362.13
2023-03-27T23:46:38.518Z,98370.00
2023-03-27T23:48:47.698Z,98376.06
2023-03-27T23:50:57.366Z,98378.91
2023-03-27T23:53:08.029Z,98378.94
2023-03-27T23:55:20.516Z,98386.91
2023-03-27T23:57:29.357Z,98381.81
2023-03-27T23:59:38.522Z,98382.66
